Moab, UT

9:29 AM MST on December 07, 2016 (GMT -0700)
Mountain View | | Change Station

Elev 4091 ft 38.56 °N, 109.55 °W | Updated 25 seconds ago

Clear
Clear
36.9 °F
Feels Like 37 °F
N
0.0
Wind Variable Wind from West

Today
High -- | Low -- °F
--% Chance of Precip.
Yesterday
High -- | Low -- °F
Precip. -- in
Pressure 30.19 in
Visibility 10.0 miles
Clouds Clear
Windchill 37 °F
Dew Point 9 °F
Humidity 31%
Rainfall 0.00 in
Snow Depth Not available.
7:22 AM 4:56 PM
First Quarter, 54% visible
METAR KCNY 071553Z AUTO 00000KT 10SM CLR M02/M13 A3013 RMK AO2 SLP221 T10221133
Pressure 30.19 in
Visibility 10.0 miles
Clouds Clear
Windchill 37 °F
Dew Point 9 °F
Humidity 31%
Rainfall 0.00 in
Snow Depth Not available.
7:22 AM 4:56 PM
First Quarter, 54% visible
METAR KCNY 071553Z AUTO 00000KT 10SM CLR M02/M13 A3013 RMK AO2 SLP221 T10221133

10-Day Weather Forecast

Almanac

Astronomy

Dec. 07, 2016 Rise Set
Actual Time
Civil Twilight
Nautical Twilight
Astronomical Twilight
Moon
Length of Visible Light
Length of Day
Tomorrow will be .
, % of the Moon is Illuminated

Today's Extremes

State Highs State Lows

Community

WunderPhotos

Upload Photos

1,956,132 photos uploaded!

WunderBlog® & News

Nearby

Air Quality

  Air Quality AQ Index Pollutant
Not available.

Snow Depth

Station Depth Elevation

Earthquake Activity

City Distance Mag. Time & Date
Minimum magnitude displayed is 2.5.

Coastal Water Temperatures

Place Temperature

Stations

Nearby Weather Stations

Station Location Temp. Windchill Dew Point Humidity Wind Precip. Elev Updated Type
                   

Watches & Warnings

There are currently no watches in effect.